sensor_id;sensor_type;location;lat;lon;timestamp;temperature;humidity
75387;DHT22;63966;47.914;22.266;2023-04-07T00:03:02;1.38;92.52
75387;DHT22;63966;47.914;22.266;2023-04-07T00:06:10;1.38;92.63
75387;DHT22;63966;47.914;22.266;2023-04-07T00:09:13;1.40;92.44
75387;DHT22;63966;47.914;22.266;2023-04-07T00:12:16;1.39;92.47
75387;DHT22;63966;47.914;22.266;2023-04-07T00:15:20;1.39;92.53
75387;DHT22;63966;47.914;22.266;2023-04-07T00:18:23;1.39;92.47
75387;DHT22;63966;47.914;22.266;2023-04-07T00:21:27;1.40;92.41
75387;DHT22;63966;47.914;22.266;2023-04-07T00:24:30;1.53;92.37
75387;DHT22;63966;47.914;22.266;2023-04-07T00:27:36;1.45;92.14
75387;DHT22;63966;47.914;22.266;2023-04-07T00:30:40;1.55;91.91
75387;DHT22;63966;47.914;22.266;2023-04-07T00:33:43;1.62;91.58
75387;DHT22;63966;47.914;22.266;2023-04-07T00:36:47;1.71;91.35
75387;DHT22;63966;47.914;22.266;2023-04-07T00:39:54;1.70;91.16
75387;DHT22;63966;47.914;22.266;2023-04-07T00:42:59;1.64;91.03
75387;DHT22;63966;47.914;22.266;2023-04-07T00:46:03;1.53;91.51
75387;DHT22;63966;47.914;22.266;2023-04-07T00:49:07;1.53;91.58
75387;DHT22;63966;47.914;22.266;2023-04-07T00:52:13;1.36;92.12
75387;DHT22;63966;47.914;22.266;2023-04-07T00:55:18;1.38;92.35
75387;DHT22;63966;47.914;22.266;2023-04-07T00:58:21;1.46;92.37
75387;DHT22;63966;47.914;22.266;2023-04-07T01:01:31;1.42;92.34
75387;DHT22;63966;47.914;22.266;2023-04-07T01:04:49;1.45;92.33
75387;DHT22;63966;47.914;22.266;2023-04-07T01:08:07;1.56;92.23
75387;DHT22;63966;47.914;22.266;2023-04-07T01:14:46;1.66;91.36
75387;DHT22;63966;47.914;22.266;2023-04-07T01:18:21;1.42;91.70
75387;DHT22;63966;47.914;22.266;2023-04-07T01:21:27;1.36;92.15
75387;DHT22;63966;47.914;22.266;2023-04-07T01:29:06;1.39;92.60
75387;DHT22;63966;47.914;22.266;2023-04-07T01:32:14;1.32;92.65
75387;DHT22;63966;47.914;22.266;2023-04-07T01:35:18;1.29;92.66
75387;DHT22;63966;47.914;22.266;2023-04-07T01:38:23;1.25;92.89
75387;DHT22;63966;47.914;22.266;2023-04-07T01:41:28;1.31;93.02
75387;DHT22;63966;47.914;22.266;2023-04-07T01:44:32;1.38;92.96
75387;DHT22;63966;47.914;22.266;2023-04-07T01:47:37;1.43;92.50
75387;DHT22;63966;47.914;22.266;2023-04-07T01:50:44;1.43;92.53
75387;DHT22;63966;47.914;22.266;2023-04-07T01:53:49;1.42;92.44
75387;DHT22;63966;47.914;22.266;2023-04-07T01:56:52;1.36;92.34
75387;DHT22;63966;47.914;22.266;2023-04-07T01:59:57;1.35;92.50
75387;DHT22;63966;47.914;22.266;2023-04-07T02:03:13;1.39;92.71
75387;DHT22;63966;47.914;22.266;2023-04-07T02:06:29;1.45;92.48
75387;DHT22;63966;47.914;22.266;2023-04-07T02:09:37;1.45;92.44
75387;DHT22;63966;47.914;22.266;2023-04-07T02:12:42;1.50;92.20
75387;DHT22;63966;47.914;22.266;2023-04-07T02:15:50;1.53;92.00
75387;DHT22;63966;47.914;22.266;2023-04-07T02:18:55;1.50;91.80
75387;DHT22;63966;47.914;22.266;2023-04-07T02:22:03;1.43;92.10
75387;DHT22;63966;47.914;22.266;2023-04-07T02:25:28;1.50;92.17
75387;DHT22;63966;47.914;22.266;2023-04-07T02:28:31;1.56;91.84
75387;DHT22;63966;47.914;22.266;2023-04-07T02:31:35;1.50;91.69
75387;DHT22;63966;47.914;22.266;2023-04-07T02:34:39;1.47;91.90
75387;DHT22;63966;47.914;22.266;2023-04-07T02:37:44;1.42;92.13
75387;DHT22;63966;47.914;22.266;2023-04-07T02:40:47;1.45;92.11
75387;DHT22;63966;47.914;22.266;2023-04-07T02:43:51;1.53;92.14
75387;DHT22;63966;47.914;22.266;2023-04-07T02:46:54;1.59;91.70
75387;DHT22;63966;47.914;22.266;2023-04-07T02:49:58;1.50;91.71
75387;DHT22;63966;47.914;22.266;2023-04-07T02:53:02;1.46;92.04
75387;DHT22;63966;47.914;22.266;2023-04-07T02:56:05;1.53;91.95
75387;DHT22;63966;47.914;22.266;2023-04-07T02:59:09;1.63;91.59
75387;DHT22;63966;47.914;22.266;2023-04-07T03:02:17;1.60;91.41
75387;DHT22;63966;47.914;22.266;2023-04-07T03:05:20;1.59;91.40
75387;DHT22;63966;47.914;22.266;2023-04-07T03:08:25;1.57;91.49
75387;DHT22;63966;47.914;22.266;2023-04-07T03:11:30;1.55;91.57
75387;DHT22;63966;47.914;22.266;2023-04-07T03:14:35;1.57;91.63
75387;DHT22;63966;47.914;22.266;2023-04-07T03:17:39;1.62;91.51
75387;DHT22;63966;47.914;22.266;2023-04-07T03:20:44;1.64;91.46
75387;DHT22;63966;47.914;22.266;2023-04-07T03:23:50;1.63;91.22
75387;DHT22;63966;47.914;22.266;2023-04-07T03:26:53;1.64;91.24
75387;DHT22;63966;47.914;22.266;2023-04-07T03:30:12;1.56;91.55
75387;DHT22;63966;47.914;22.266;2023-04-07T03:33:17;1.55;91.64
75387;DHT22;63966;47.914;22.266;2023-04-07T03:36:21;1.46;92.07
75387;DHT22;63966;47.914;22.266;2023-04-07T03:39:25;1.52;91.96
75387;DHT22;63966;47.914;22.266;2023-04-07T03:42:32;1.59;91.72
75387;DHT22;63966;47.914;22.266;2023-04-07T03:45:39;1.55;91.75
75387;DHT22;63966;47.914;22.266;2023-04-07T03:48:44;1.50;91.99
75387;DHT22;63966;47.914;22.266;2023-04-07T03:51:47;1.50;92.12
75387;DHT22;63966;47.914;22.266;2023-04-07T03:54:53;1.64;92.00
75387;DHT22;63966;47.914;22.266;2023-04-07T03:58:01;1.71;91.63
75387;DHT22;63966;47.914;22.266;2023-04-07T04:01:08;1.78;91.39
75387;DHT22;63966;47.914;22.266;2023-04-07T04:04:14;1.78;91.41
75387;DHT22;63966;47.914;22.266;2023-04-07T04:07:18;1.78;91.23
75387;DHT22;63966;47.914;22.266;2023-04-07T04:10:26;1.78;91.14
75387;DHT22;63966;47.914;22.266;2023-04-07T04:13:30;1.76;91.28
75387;DHT22;63966;47.914;22.266;2023-04-07T04:16:38;1.73;91.33
75387;DHT22;63966;47.914;22.266;2023-04-07T04:19:55;1.56;91.83
75387;DHT22;63966;47.914;22.266;2023-04-07T04:23:19;1.60;92.15
75387;DHT22;63966;47.914;22.266;2023-04-07T04:26:26;1.59;92.12
75387;DHT22;63966;47.914;22.266;2023-04-07T04:29:37;1.55;92.34
75387;DHT22;63966;47.914;22.266;2023-04-07T04:32:43;1.55;92.55
75387;DHT22;63966;47.914;22.266;2023-04-07T04:35:47;1.64;92.46
75387;DHT22;63966;47.914;22.266;2023-04-07T04:38:54;1.64;92.31
75387;DHT22;63966;47.914;22.266;2023-04-07T04:41:59;1.80;92.19
75387;DHT22;63966;47.914;22.266;2023-04-07T04:45:08;1.95;91.53
75387;DHT22;63966;47.914;22.266;2023-04-07T04:48:15;1.84;91.31
75387;DHT22;63966;47.914;22.266;2023-04-07T04:51:20;1.77;91.53
75387;DHT22;63966;47.914;22.266;2023-04-07T04:54:29;1.78;91.64
75387;DHT22;63966;47.914;22.266;2023-04-07T04:57:33;1.83;91.47
75387;DHT22;63966;47.914;22.266;2023-04-07T05:00:41;1.87;91.48
75387;DHT22;63966;47.914;22.266;2023-04-07T05:03:45;2.01;91.05
75387;DHT22;63966;47.914;22.266;2023-04-07T05:06:54;2.15;90.60
75387;DHT22;63966;47.914;22.266;2023-04-07T05:10:01;2.08;90.02
75387;DHT22;63966;47.914;22.266;2023-04-07T05:13:08;1.97;90.23
75387;DHT22;63966;47.914;22.266;2023-04-07T05:16:12;2.10;90.35
75387;DHT22;63966;47.914;22.266;2023-04-07T05:19:16;2.20;89.76
75387;DHT22;63966;47.914;22.266;2023-04-07T05:22:20;2.08;90.00
75387;DHT22;63966;47.914;22.266;2023-04-07T05:25:26;2.24;89.75
75387;DHT22;63966;47.914;22.266;2023-04-07T05:28:33;2.28;89.30
75387;DHT22;63966;47.914;22.266;2023-04-07T05:31:41;2.31;89.39
75387;DHT22;63966;47.914;22.266;2023-04-07T05:34:48;2.46;88.64
75387;DHT22;63966;47.914;22.266;2023-04-07T05:37:53;2.42;89.05
75387;DHT22;63966;47.914;22.266;2023-04-07T05:40:57;2.73;87.27
75387;DHT22;63966;47.914;22.266;2023-04-07T05:44:06;2.45;88.33
75387;DHT22;63966;47.914;22.266;2023-04-07T05:47:14;2.80;87.00
75387;DHT22;63966;47.914;22.266;2023-04-07T05:50:18;2.69;87.54
75387;DHT22;63966;47.914;22.266;2023-04-07T05:53:24;2.73;87.60
75387;DHT22;63966;47.914;22.266;2023-04-07T05:56:27;2.76;87.42
75387;DHT22;63966;47.914;22.266;2023-04-07T05:59:31;2.89;86.93
75387;DHT22;63966;47.914;22.266;2023-04-07T06:02:36;2.91;86.73
75387;DHT22;63966;47.914;22.266;2023-04-07T06:05:39;3.01;86.45
75387;DHT22;63966;47.914;22.266;2023-04-07T06:08:47;3.12;86.01
75387;DHT22;63966;47.914;22.266;2023-04-07T06:11:51;3.21;85.46
75387;DHT22;63966;47.914;22.266;2023-04-07T06:14:56;3.54;84.43
75387;DHT22;63966;47.914;22.266;2023-04-07T06:17:59;3.75;83.35
75387;DHT22;63966;47.914;22.266;2023-04-07T06:21:03;3.68;83.04
75387;DHT22;63966;47.914;22.266;2023-04-07T06:24:06;3.59;83.94
75387;DHT22;63966;47.914;22.266;2023-04-07T06:27:10;3.63;83.38
75387;DHT22;63966;47.914;22.266;2023-04-07T06:30:15;3.46;83.95
75387;DHT22;63966;47.914;22.266;2023-04-07T06:33:19;3.46;83.82
75387;DHT22;63966;47.914;22.266;2023-04-07T06:36:27;3.42;84.24
75387;DHT22;63966;47.914;22.266;2023-04-07T06:39:31;3.39;84.15
75387;DHT22;63966;47.914;22.266;2023-04-07T06:42:34;3.60;84.02
75387;DHT22;63966;47.914;22.266;2023-04-07T06:45:49;3.80;82.93
75387;DHT22;63966;47.914;22.266;2023-04-07T06:48:53;3.77;82.90
75387;DHT22;63966;47.914;22.266;2023-04-07T06:51:56;3.86;82.47
75387;DHT22;63966;47.914;22.266;2023-04-07T06:55:00;3.94;81.99
75387;DHT22;63966;47.914;22.266;2023-04-07T06:58:03;3.80;83.18
75387;DHT22;63966;47.914;22.266;2023-04-07T07:01:07;4.06;81.10
75387;DHT22;63966;47.914;22.266;2023-04-07T07:04:10;4.14;80.73
75387;DHT22;63966;47.914;22.266;2023-04-07T07:07:14;3.91;81.56
75387;DHT22;63966;47.914;22.266;2023-04-07T07:10:18;4.07;80.55
75387;DHT22;63966;47.914;22.266;2023-04-07T07:13:25;4.00;81.09
75387;DHT22;63966;47.914;22.266;2023-04-07T07:16:29;3.82;81.48
75387;DHT22;63966;47.914;22.266;2023-04-07T07:19:33;3.97;81.77
75387;DHT22;63966;47.914;22.266;2023-04-07T07:22:36;3.75;81.58
75387;DHT22;63966;47.914;22.266;2023-04-07T07:25:40;3.77;81.89
75387;DHT22;63966;47.914;22.266;2023-04-07T07:28:43;4.18;80.88
75387;DHT22;63966;47.914;22.266;2023-04-07T07:31:47;4.58;78.23
75387;DHT22;63966;47.914;22.266;2023-04-07T07:34:50;4.59;78.72
75387;DHT22;63966;47.914;22.266;2023-04-07T07:37:54;4.79;77.14
75387;DHT22;63966;47.914;22.266;2023-04-07T07:40:58;4.93;76.66
75387;DHT22;63966;47.914;22.266;2023-04-07T07:44:01;5.17;75.88
75387;DHT22;63966;47.914;22.266;2023-04-07T07:47:04;5.30;73.61
75387;DHT22;63966;47.914;22.266;2023-04-07T07:50:09;4.93;74.33
75387;DHT22;63966;47.914;22.266;2023-04-07T07:53:13;4.49;76.28
75387;DHT22;63966;47.914;22.266;2023-04-07T07:56:17;4.62;76.05
75387;DHT22;63966;47.914;22.266;2023-04-07T07:59:20;4.45;77.66
75387;DHT22;63966;47.914;22.266;2023-04-07T08:02:24;4.11;78.88
75387;DHT22;63966;47.914;22.266;2023-04-07T08:05:33;4.21;79.35
75387;DHT22;63966;47.914;22.266;2023-04-07T08:08:36;4.22;78.39
75387;DHT22;63966;47.914;22.266;2023-04-07T08:11:39;4.14;79.26
75387;DHT22;63966;47.914;22.266;2023-04-07T08:14:43;3.97;79.31
75387;DHT22;63966;47.914;22.266;2023-04-07T08:17:47;4.00;80.31
75387;DHT22;63966;47.914;22.266;2023-04-07T08:20:52;4.06;78.84
75387;DHT22;63966;47.914;22.266;2023-04-07T08:23:56;4.11;78.74
75387;DHT22;63966;47.914;22.266;2023-04-07T08:26:59;4.22;77.53
75387;DHT22;63966;47.914;22.266;2023-04-07T08:30:05;4.08;77.60
75387;DHT22;63966;47.914;22.266;2023-04-07T08:33:09;4.04;78.94
75387;DHT22;63966;47.914;22.266;2023-04-07T08:36:13;4.04;78.35
75387;DHT22;63966;47.914;22.266;2023-04-07T08:39:16;4.07;78.75
75387;DHT22;63966;47.914;22.266;2023-04-07T08:42:22;3.86;79.80
75387;DHT22;63966;47.914;22.266;2023-04-07T08:45:29;4.13;79.54
75387;DHT22;63966;47.914;22.266;2023-04-07T08:48:34;4.55;78.40
75387;DHT22;63966;47.914;22.266;2023-04-07T08:51:45;4.92;76.22
75387;DHT22;63966;47.914;22.266;2023-04-07T08:54:50;4.86;76.06
75387;DHT22;63966;47.914;22.266;2023-04-07T08:57:55;4.93;73.79
75387;DHT22;63966;47.914;22.266;2023-04-07T09:01:05;4.86;74.68
75387;DHT22;63966;47.914;22.266;2023-04-07T09:04:10;4.80;75.31
75387;DHT22;63966;47.914;22.266;2023-04-07T09:07:14;4.68;76.39
75387;DHT22;63966;47.914;22.266;2023-04-07T09:10:17;4.48;77.38
75387;DHT22;63966;47.914;22.266;2023-04-07T09:13:21;4.64;76.45
75387;DHT22;63966;47.914;22.266;2023-04-07T09:16:24;4.66;76.55
75387;DHT22;63966;47.914;22.266;2023-04-07T09:19:32;4.69;76.33
75387;DHT22;63966;47.914;22.266;2023-04-07T09:22:40;4.52;76.44
75387;DHT22;63966;47.914;22.266;2023-04-07T09:25:45;4.58;76.46
75387;DHT22;63966;47.914;22.266;2023-04-07T09:32:00;4.85;75.78
75387;DHT22;63966;47.914;22.266;2023-04-07T09:35:03;5.21;75.29
75387;DHT22;63966;47.914;22.266;2023-04-07T09:38:08;5.38;74.52
75387;DHT22;63966;47.914;22.266;2023-04-07T09:41:14;5.26;74.71
75387;DHT22;63966;47.914;22.266;2023-04-07T09:44:20;5.17;74.31
75387;DHT22;63966;47.914;22.266;2023-04-07T09:47:30;5.44;73.22
75387;DHT22;63966;47.914;22.266;2023-04-07T09:50:39;5.20;73.17
75387;DHT22;63966;47.914;22.266;2023-04-07T09:53:50;5.09;74.65
75387;DHT22;63966;47.914;22.266;2023-04-07T09:56:55;5.06;74.54
75387;DHT22;63966;47.914;22.266;2023-04-07T10:00:00;4.94;75.60
75387;DHT22;63966;47.914;22.266;2023-04-07T10:03:15;5.03;76.31
75387;DHT22;63966;47.914;22.266;2023-04-07T10:06:19;5.24;75.53
75387;DHT22;63966;47.914;22.266;2023-04-07T10:09:24;5.66;74.71
75387;DHT22;63966;47.914;22.266;2023-04-07T10:12:30;5.82;73.28
75387;DHT22;63966;47.914;22.266;2023-04-07T10:15:35;5.50;73.22
75387;DHT22;63966;47.914;22.266;2023-04-07T10:18:40;5.35;74.52
75387;DHT22;63966;47.914;22.266;2023-04-07T10:21:43;5.37;74.86
75387;DHT22;63966;47.914;22.266;2023-04-07T10:28:05;5.92;72.80
75387;DHT22;63966;47.914;22.266;2023-04-07T10:31:10;5.78;74.11
75387;DHT22;63966;47.914;22.266;2023-04-07T10:34:14;5.86;72.22
75387;DHT22;63966;47.914;22.266;2023-04-07T10:37:19;5.98;71.17
75387;DHT22;63966;47.914;22.266;2023-04-07T10:40:29;5.88;72.19
75387;DHT22;63966;47.914;22.266;2023-04-07T10:43:40;5.62;72.39
75387;DHT22;63966;47.914;22.266;2023-04-07T10:50:16;5.58;73.58
75387;DHT22;63966;47.914;22.266;2023-04-07T10:53:21;5.28;74.28
75387;DHT22;63966;47.914;22.266;2023-04-07T10:56:24;5.35;75.00
75387;DHT22;63966;47.914;22.266;2023-04-07T10:59:28;5.79;73.00
75387;DHT22;63966;47.914;22.266;2023-04-07T11:02:32;6.20;71.48
75387;DHT22;63966;47.914;22.266;2023-04-07T11:05:37;6.27;71.00
75387;DHT22;63966;47.914;22.266;2023-04-07T11:08:43;6.00;71.71
75387;DHT22;63966;47.914;22.266;2023-04-07T11:11:50;6.14;70.50
75387;DHT22;63966;47.914;22.266;2023-04-07T11:14:54;6.13;71.17
75387;DHT22;63966;47.914;22.266;2023-04-07T11:21:17;6.81;69.90
75387;DHT22;63966;47.914;22.266;2023-04-07T11:24:34;6.50;68.50
75387;DHT22;63966;47.914;22.266;2023-04-07T11:27:39;6.45;70.80
75387;DHT22;63966;47.914;22.266;2023-04-07T11:30:49;6.58;69.73
75387;DHT22;63966;47.914;22.266;2023-04-07T11:33:58;6.38;70.62
75387;DHT22;63966;47.914;22.266;2023-04-07T11:37:22;6.40;70.16
75387;DHT22;63966;47.914;22.266;2023-04-07T11:40:36;6.24;70.99
75387;DHT22;63966;47.914;22.266;2023-04-07T11:43:40;6.24;70.87
75387;DHT22;63966;47.914;22.266;2023-04-07T11:49:57;6.33;70.67
75387;DHT22;63966;47.914;22.266;2023-04-07T11:53:00;6.37;70.98
75387;DHT22;63966;47.914;22.266;2023-04-07T11:56:06;6.37;70.44
75387;DHT22;63966;47.914;22.266;2023-04-07T11:59:22;6.33;69.83
75387;DHT22;63966;47.914;22.266;2023-04-07T12:02:33;6.40;69.83
75387;DHT22;63966;47.914;22.266;2023-04-07T12:05:44;6.65;69.64
75387;DHT22;63966;47.914;22.266;2023-04-07T12:08:48;6.68;69.66
75387;DHT22;63966;47.914;22.266;2023-04-07T12:11:51;6.75;69.77
75387;DHT22;63966;47.914;22.266;2023-04-07T12:14:56;6.77;69.00
75387;DHT22;63966;47.914;22.266;2023-04-07T12:17:59;6.77;68.74
75387;DHT22;63966;47.914;22.266;2023-04-07T12:21:03;7.07;67.96
75387;DHT22;63966;47.914;22.266;2023-04-07T12:24:07;7.53;67.98
75387;DHT22;63966;47.914;22.266;2023-04-07T12:27:11;7.68;67.90
75387;DHT22;63966;47.914;22.266;2023-04-07T12:30:15;7.71;66.37
75387;DHT22;63966;47.914;22.266;2023-04-07T12:33:18;7.95;66.50
75387;DHT22;63966;47.914;22.266;2023-04-07T12:36:22;8.17;66.92
75387;DHT22;63966;47.914;22.266;2023-04-07T12:39:26;8.22;65.85
75387;DHT22;63966;47.914;22.266;2023-04-07T12:42:29;8.32;64.96
75387;DHT22;63966;47.914;22.266;2023-04-07T12:45:33;8.33;65.31
75387;DHT22;63966;47.914;22.266;2023-04-07T12:48:36;8.30;63.50
75387;DHT22;63966;47.914;22.266;2023-04-07T12:51:40;8.15;64.20
75387;DHT22;63966;47.914;22.266;2023-04-07T12:54:44;7.91;67.66
75387;DHT22;63966;47.914;22.266;2023-04-07T12:57:47;7.60;67.62
75387;DHT22;63966;47.914;22.266;2023-04-07T13:00:52;7.07;69.09
75387;DHT22;63966;47.914;22.266;2023-04-07T13:03:56;6.78;68.22
75387;DHT22;63966;47.914;22.266;2023-04-07T13:06:59;6.38;69.48
75387;DHT22;63966;47.914;22.266;2023-04-07T13:10:05;6.24;68.38
75387;DHT22;63966;47.914;22.266;2023-04-07T13:13:10;6.24;69.93
75387;DHT22;63966;47.914;22.266;2023-04-07T13:16:14;6.44;69.40
75387;DHT22;63966;47.914;22.266;2023-04-07T13:19:18;6.48;67.76
75387;DHT22;63966;47.914;22.266;2023-04-07T13:22:22;6.52;67.92
75387;DHT22;63966;47.914;22.266;2023-04-07T13:25:27;6.47;68.04
75387;DHT22;63966;47.914;22.266;2023-04-07T13:28:30;6.42;67.34
75387;DHT22;63966;47.914;22.266;2023-04-07T13:31:34;6.65;67.05
75387;DHT22;63966;47.914;22.266;2023-04-07T13:34:37;6.38;70.28
75387;DHT22;63966;47.914;22.266;2023-04-07T13:37:41;6.51;67.72
75387;DHT22;63966;47.914;22.266;2023-04-07T13:40:45;6.81;68.64
75387;DHT22;63966;47.914;22.266;2023-04-07T13:43:51;6.93;66.88
75387;DHT22;63966;47.914;22.266;2023-04-07T13:46:56;6.96;68.75
75387;DHT22;63966;47.914;22.266;2023-04-07T13:50:03;6.95;68.51
75387;DHT22;63966;47.914;22.266;2023-04-07T13:53:07;6.91;67.45
75387;DHT22;63966;47.914;22.266;2023-04-07T13:56:10;6.61;67.44
75387;DHT22;63966;47.914;22.266;2023-04-07T13:59:14;6.65;69.40
75387;DHT22;63966;47.914;22.266;2023-04-07T14:02:18;6.65;67.12
75387;DHT22;63966;47.914;22.266;2023-04-07T14:05:23;6.54;69.04
75387;DHT22;63966;47.914;22.266;2023-04-07T14:08:27;6.45;69.44
75387;DHT22;63966;47.914;22.266;2023-04-07T14:11:31;6.41;69.88
75387;DHT22;63966;47.914;22.266;2023-04-07T14:14:35;6.21;70.24
75387;DHT22;63966;47.914;22.266;2023-04-07T14:17:42;6.10;70.46
75387;DHT22;63966;47.914;22.266;2023-04-07T14:20:46;6.27;70.31
75387;DHT22;63966;47.914;22.266;2023-04-07T14:23:50;6.41;69.56
75387;DHT22;63966;47.914;22.266;2023-04-07T14:26:54;6.29;69.77
75387;DHT22;63966;47.914;22.266;2023-04-07T14:29:57;6.11;71.17
75387;DHT22;63966;47.914;22.266;2023-04-07T14:33:01;6.07;71.29
75387;DHT22;63966;47.914;22.266;2023-04-07T14:36:07;6.09;71.38
75387;DHT22;63966;47.914;22.266;2023-04-07T14:39:11;6.19;70.53
75387;DHT22;63966;47.914;22.266;2023-04-07T14:42:14;6.13;70.17
75387;DHT22;63966;47.914;22.266;2023-04-07T14:45:18;5.88;70.60
75387;DHT22;63966;47.914;22.266;2023-04-07T14:48:22;5.76;70.68
75387;DHT22;63966;47.914;22.266;2023-04-07T14:51:26;5.78;70.71
75387;DHT22;63966;47.914;22.266;2023-04-07T14:54:30;5.82;71.06
75387;DHT22;63966;47.914;22.266;2023-04-07T14:57:34;5.86;71.67
75387;DHT22;63966;47.914;22.266;2023-04-07T15:00:37;5.88;70.72
75387;DHT22;63966;47.914;22.266;2023-04-07T15:03:41;5.83;71.62
75387;DHT22;63966;47.914;22.266;2023-04-07T15:06:45;5.79;71.72
75387;DHT22;63966;47.914;22.266;2023-04-07T15:09:49;5.58;71.57
75387;DHT22;63966;47.914;22.266;2023-04-07T15:12:53;5.42;71.83
75387;DHT22;63966;47.914;22.266;2023-04-07T15:16:04;5.50;71.99
75387;DHT22;63966;47.914;22.266;2023-04-07T15:19:08;5.72;72.10
75387;DHT22;63966;47.914;22.266;2023-04-07T15:22:12;5.68;71.60
75387;DHT22;63966;47.914;22.266;2023-04-07T15:25:16;5.76;72.67
75387;DHT22;63966;47.914;22.266;2023-04-07T15:28:19;5.68;71.69
75387;DHT22;63966;47.914;22.266;2023-04-07T15:31:23;5.61;71.60
75387;DHT22;63966;47.914;22.266;2023-04-07T15:34:29;5.65;71.79
75387;DHT22;63966;47.914;22.266;2023-04-07T15:37:32;5.75;71.19
75387;DHT22;63966;47.914;22.266;2023-04-07T15:40:37;5.73;71.07
75387;DHT22;63966;47.914;22.266;2023-04-07T15:43:41;5.65;71.60
75387;DHT22;63966;47.914;22.266;2023-04-07T15:46:45;5.62;71.63
75387;DHT22;63966;47.914;22.266;2023-04-07T15:49:48;5.55;71.98
75387;DHT22;63966;47.914;22.266;2023-04-07T15:52:52;5.56;71.99
75387;DHT22;63966;47.914;22.266;2023-04-07T15:55:56;5.65;71.75
75387;DHT22;63966;47.914;22.266;2023-04-07T15:59:00;5.54;71.92
75387;DHT22;63966;47.914;22.266;2023-04-07T16:02:03;5.54;71.89
75387;DHT22;63966;47.914;22.266;2023-04-07T16:05:07;5.65;72.00
75387;DHT22;63966;47.914;22.266;2023-04-07T16:08:11;5.68;71.49
75387;DHT22;63966;47.914;22.266;2023-04-07T16:11:16;5.56;72.76
75387;DHT22;63966;47.914;22.266;2023-04-07T16:14:20;5.50;72.85
75387;DHT22;63966;47.914;22.266;2023-04-07T16:17:23;5.40;73.14
75387;DHT22;63966;47.914;22.266;2023-04-07T16:20:27;5.35;73.34
75387;DHT22;63966;47.914;22.266;2023-04-07T16:23:31;5.27;73.03
75387;DHT22;63966;47.914;22.266;2023-04-07T16:26:34;5.26;73.03
75387;DHT22;63966;47.914;22.266;2023-04-07T16:29:38;5.34;72.87
75387;DHT22;63966;47.914;22.266;2023-04-07T16:32:42;5.42;72.70
75387;DHT22;63966;47.914;22.266;2023-04-07T16:35:46;5.37;72.93
75387;DHT22;63966;47.914;22.266;2023-04-07T16:38:50;5.27;73.35
75387;DHT22;63966;47.914;22.266;2023-04-07T16:41:54;5.30;73.16
75387;DHT22;63966;47.914;22.266;2023-04-07T16:44:57;5.30;73.36
75387;DHT22;63966;47.914;22.266;2023-04-07T16:48:03;5.28;73.65
75387;DHT22;63966;47.914;22.266;2023-04-07T16:51:07;5.31;73.54
75387;DHT22;63966;47.914;22.266;2023-04-07T16:54:11;5.33;74.49
75387;DHT22;63966;47.914;22.266;2023-04-07T16:57:14;5.23;74.05
75387;DHT22;63966;47.914;22.266;2023-04-07T17:00:20;5.31;74.17
75387;DHT22;63966;47.914;22.266;2023-04-07T17:03:24;5.27;74.39
75387;DHT22;63966;47.914;22.266;2023-04-07T17:06:28;5.27;73.59
75387;DHT22;63966;47.914;22.266;2023-04-07T17:09:31;5.21;74.64
75387;DHT22;63966;47.914;22.266;2023-04-07T17:12:35;5.16;74.58
75387;DHT22;63966;47.914;22.266;2023-04-07T17:15:39;5.13;75.17
75387;DHT22;63966;47.914;22.266;2023-04-07T17:18:42;5.19;75.34
75387;DHT22;63966;47.914;22.266;2023-04-07T17:21:46;5.14;74.81
75387;DHT22;63966;47.914;22.266;2023-04-07T17:24:50;5.09;75.60
75387;DHT22;63966;47.914;22.266;2023-04-07T17:27:53;5.04;74.98
75387;DHT22;63966;47.914;22.266;2023-04-07T17:30:57;5.04;75.14
75387;DHT22;63966;47.914;22.266;2023-04-07T17:34:01;5.06;75.67
75387;DHT22;63966;47.914;22.266;2023-04-07T17:37:05;5.07;75.77
75387;DHT22;63966;47.914;22.266;2023-04-07T17:40:09;5.01;76.37
75387;DHT22;63966;47.914;22.266;2023-04-07T17:43:12;4.96;77.05
75387;DHT22;63966;47.914;22.266;2023-04-07T17:46:16;5.03;77.47
75387;DHT22;63966;47.914;22.266;2023-04-07T17:49:20;5.03;77.58
75387;DHT22;63966;47.914;22.266;2023-04-07T17:52:24;4.97;77.87
75387;DHT22;63966;47.914;22.266;2023-04-07T17:55:27;4.99;76.24
75387;DHT22;63966;47.914;22.266;2023-04-07T17:58:31;5.00;76.36
75387;DHT22;63966;47.914;22.266;2023-04-07T18:01:35;5.00;76.38
75387;DHT22;63966;47.914;22.266;2023-04-07T18:04:38;4.97;76.39
75387;DHT22;63966;47.914;22.266;2023-04-07T18:07:42;4.99;76.68
75387;DHT22;63966;47.914;22.266;2023-04-07T18:10:46;4.94;76.87
75387;DHT22;63966;47.914;22.266;2023-04-07T18:13:49;4.94;77.00
75387;DHT22;63966;47.914;22.266;2023-04-07T18:16:54;4.94;77.06
75387;DHT22;63966;47.914;22.266;2023-04-07T18:19:58;4.90;77.22
75387;DHT22;63966;47.914;22.266;2023-04-07T18:23:01;4.86;77.28
75387;DHT22;63966;47.914;22.266;2023-04-07T18:26:05;4.79;77.67
75387;DHT22;63966;47.914;22.266;2023-04-07T18:29:09;4.72;77.84
75387;DHT22;63966;47.914;22.266;2023-04-07T18:32:13;4.71;78.04
75387;DHT22;63966;47.914;22.266;2023-04-07T18:35:17;4.68;78.13
75387;DHT22;63966;47.914;22.266;2023-04-07T18:38:21;4.58;78.34
75387;DHT22;63966;47.914;22.266;2023-04-07T18:41:24;4.52;78.81
75387;DHT22;63966;47.914;22.266;2023-04-07T18:44:28;4.48;78.88
75387;DHT22;63966;47.914;22.266;2023-04-07T18:47:36;4.45;78.87
75387;DHT22;63966;47.914;22.266;2023-04-07T18:50:41;4.48;78.80
75387;DHT22;63966;47.914;22.266;2023-04-07T18:53:44;4.40;79.27
75387;DHT22;63966;47.914;22.266;2023-04-07T18:56:48;4.44;79.33
75387;DHT22;63966;47.914;22.266;2023-04-07T18:59:52;4.45;79.17
75387;DHT22;63966;47.914;22.266;2023-04-07T19:02:55;4.45;78.95
75387;DHT22;63966;47.914;22.266;2023-04-07T19:05:59;4.46;79.20
75387;DHT22;63966;47.914;22.266;2023-04-07T19:09:05;4.44;79.28
75387;DHT22;63966;47.914;22.266;2023-04-07T19:12:08;4.45;79.46
75387;DHT22;63966;47.914;22.266;2023-04-07T19:15:13;4.42;79.25
75387;DHT22;63966;47.914;22.266;2023-04-07T19:18:17;4.37;79.78
75387;DHT22;63966;47.914;22.266;2023-04-07T19:21:20;4.44;79.83
75387;DHT22;63966;47.914;22.266;2023-04-07T19:24:24;4.41;79.72
75387;DHT22;63966;47.914;22.266;2023-04-07T19:27:28;4.35;80.30
75387;DHT22;63966;47.914;22.266;2023-04-07T19:30:32;4.31;80.48
75387;DHT22;63966;47.914;22.266;2023-04-07T19:33:35;4.38;80.21
75387;DHT22;63966;47.914;22.266;2023-04-07T19:36:39;4.30;80.67
75387;DHT22;63966;47.914;22.266;2023-04-07T19:39:44;4.34;80.52
75387;DHT22;63966;47.914;22.266;2023-04-07T19:43:04;4.38;80.52
75387;DHT22;63966;47.914;22.266;2023-04-07T19:46:07;4.34;80.65
75387;DHT22;63966;47.914;22.266;2023-04-07T19:49:11;4.31;80.88
75387;DHT22;63966;47.914;22.266;2023-04-07T19:52:15;4.34;80.80
75387;DHT22;63966;47.914;22.266;2023-04-07T19:55:19;4.35;80.93